Time;durP1;ratioP1;P1;durP2;ratioP2;P2;SDS_P1;SDS_P2;PMS_P1;PMS_P2;Temp;Humidity;BMP_temperature;BMP_pressure;BME280_temperature;BME280_humidity;BME280_pressure;Samples;Min_cycle;Max_cycle;Signal;HPM_P1;HPM_P2
2021/12/01 00:01:55;;;;;;;0.95;0.77;;;5.00;99.90;;;;;;6303703;28;20024;-82
2021/12/01 00:04:55;;;;;;;0.60;0.60;;;4.80;99.90;;;;;;6286805;28;20027;-82
2021/12/01 00:07:56;;;;;;;0.70;0.70;;;;;;;;;;6319983;28;20024;-82
2021/12/01 00:10:57;;;;;;;0.45;0.45;;;;;;;;;;6319921;28;20024;-82
2021/12/01 00:13:58;;;;;;;0.52;0.52;;;5.20;99.90;;;;;;6303134;28;20398;-82
2021/12/01 00:16:59;;;;;;;2.45;1.10;;;;;;;;;;6286313;28;20032;-82
2021/12/01 00:20:00;;;;;;;1.10;1.08;;;;;;;;;;6319982;28;20065;-84
2021/12/01 00:23:01;;;;;;;0.52;0.52;;;;;;;;;;6321205;28;20031;-81
2021/12/01 00:26:02;;;;;;;1.30;1.20;;;;;;;;;;6319566;28;20079;-82
2021/12/01 00:29:03;;;;;;;2.40;1.63;;;4.90;99.90;;;;;;6318837;28;20035;-81
2021/12/01 00:32:04;;;;;;;1.80;1.67;;;5.10;99.90;;;;;;6320185;28;20431;-82
2021/12/01 00:35:06;;;;;;;3.13;1.88;;;5.00;99.90;;;;;;6285158;28;20115;-82
2021/12/01 00:38:06;;;;;;;2.20;2.00;;;5.00;99.90;;;;;;6285759;28;20046;-82
2021/12/01 00:41:07;;;;;;;2.20;2.00;;;;;;;;;;6319107;28;20745;-82
2021/12/01 00:44:10;;;;;;;2.38;1.85;;;;;;;;;;6320604;28;20016;-83
2021/12/01 00:47:12;;;;;;;1.70;1.60;;;;;;;;;;6319327;28;20016;-84
2021/12/01 00:50:43;;;;;;;2.38;2.13;;;5.00;99.90;;;;;;6319292;28;20032;-82
2021/12/01 00:53:44;;;;;;;4.53;1.90;;;4.90;99.90;;;;;;6303374;28;20093;-83
2021/12/01 00:56:45;;;;;;;3.20;2.10;;;;;;;;;;6319180;28;20074;-85
2021/12/01 00:59:46;;;;;;;2.60;1.88;;;;;;;;;;6320281;28;20054;-82
2021/12/01 01:02:47;;;;;;;2.28;2.03;;;;;;;;;;6319459;28;20032;-83
2021/12/01 01:05:48;;;;;;;1.90;1.63;;;4.90;99.90;;;;;;6318210;28;20024;-82
2021/12/01 01:08:49;;;;;;;4.95;2.67;;;;;;;;;;6301999;28;20398;-82
2021/12/01 01:18:30;;;;;;;2.13;1.70;;;5.20;99.90;;;;;;6318425;28;20040;-83
2021/12/01 01:21:34;;;;;;;2.00;1.90;;;5.10;99.90;;;;;;6318505;28;20032;-82
2021/12/01 01:24:35;;;;;;;2.63;2.00;;;;;;;;;;6301752;28;20036;-82
2021/12/01 01:27:36;;;;;;;1.85;1.75;;;5.20;99.90;;;;;;6319721;28;20085;-83
2021/12/01 01:30:37;;;;;;;2.20;1.67;;;;;;;;;;6301523;28;20024;-85
2021/12/01 01:33:38;;;;;;;2.05;1.92;;;5.50;99.90;;;;;;6318024;28;20045;-80
2021/12/01 01:36:39;;;;;;;2.17;1.70;;;;;;;;;;6318642;28;20032;-84
2021/12/01 01:39:39;;;;;;;1.80;1.70;;;5.30;99.90;;;;;;6319515;28;20063;-82
2021/12/01 01:42:40;;;;;;;2.15;1.90;;;;;;;;;;6317734;28;20454;-84
2021/12/01 01:45:41;;;;;;;1.98;1.77;;;5.50;99.90;;;;;;6319641;28;20020;-82
2021/12/01 01:48:48;;;;;;;1.70;1.60;;;;;;;;;;6300931;28;20110;-79
2021/12/01 01:51:49;;;;;;;1.75;1.65;;;5.40;99.90;;;;;;6317908;28;20119;-78
2021/12/01 01:54:50;;;;;;;1.73;1.63;;;;;;;;;;6319208;28;20032;-83
2021/12/01 01:57:51;;;;;;;2.15;1.95;;;;;;;;;;6318591;28;20061;-82
2021/12/01 02:00:56;;;;;;;2.72;1.95;;;5.60;99.90;;;;;;6319415;28;20426;-82
2021/12/01 02:03:57;;;;;;;4.22;2.03;;;;;;;;;;6300930;28;20032;-85
2021/12/01 02:06:59;;;;;;;2.20;1.95;;;5.70;99.90;;;;;;6317237;28;20028;-82
2021/12/01 02:10:00;;;;;;;1.80;1.55;;;;;;;;;;6300295;28;20194;-84
2021/12/01 02:13:01;;;;;;;3.17;1.75;;;;;;;;;;6317229;28;20020;-82
2021/12/01 02:16:02;;;;;;;1.60;1.50;;;;;;;;;;6300321;28;20085;-81
2021/12/01 02:19:03;;;;;;;1.55;1.45;;;5.50;99.90;;;;;;6318140;28;20064;-81
2021/12/01 02:22:04;;;;;;;1.85;1.75;;;5.50;99.90;;;;;;6283681;28;20064;-85
2021/12/01 02:25:05;;;;;;;1.20;1.20;;;;;;;;;;6299742;28;20077;-82
2021/12/01 02:28:07;;;;;;;1.35;1.00;;;5.70;99.90;;;;;;6316963;28;20036;-81
2021/12/01 02:31:08;;;;;;;3.30;1.70;;;;;;;;;;6317018;28;20159;-81
2021/12/01 02:34:12;;;;;;;2.80;1.48;;;5.70;99.90;;;;;;6317093;28;20036;-84
2021/12/01 02:37:13;;;;;;;1.50;1.40;;;5.90;99.90;;;;;;6316881;28;20020;-83
2021/12/01 02:40:14;;;;;;;2.55;1.77;;;;;;;;;;6316831;28;20039;-81
2021/12/01 02:43:15;;;;;;;2.75;1.70;;;5.60;99.90;;;;;;6316854;28;20126;-81
2021/12/01 02:46:15;;;;;;;2.90;1.67;;;5.70;99.90;;;;;;6299723;28;20394;-81
2021/12/01 02:49:24;;;;;;;2.83;2.38;;;5.80;99.90;;;;;;6316204;28;20034;-80
2021/12/01 02:52:25;;;;;;;2.15;1.67;;;;;;;;;;6299689;28;20114;-80
2021/12/01 02:55:25;;;;;;;2.53;1.67;;;5.90;99.90;;;;;;6316728;28;20020;-82
2021/12/01 02:58:27;;;;;;;1.50;1.40;;;5.80;99.90;;;;;;6282630;28;20054;-83
2021/12/01 03:01:28;;;;;;;2.23;1.37;;;;;;;;;;6300120;28;20496;-82
2021/12/01 03:04:29;;;;;;;1.75;1.65;;;6.00;99.90;;;;;;6299634;28;20024;-82
2021/12/01 03:07:31;;;;;;;1.50;1.40;;;6.30;99.90;;;;;;6299830;28;20032;-80
2021/12/01 03:10:32;;;;;;;1.38;1.27;;;6.10;99.90;;;;;;6299781;28;20043;-79
2021/12/01 03:13:32;;;;;;;1.58;1.48;;;6.30;99.90;;;;;;6316437;28;20032;-79
2021/12/01 03:16:34;;;;;;;2.03;1.88;;;5.90;99.90;;;;;;6299511;28;20035;-80
2021/12/01 03:19:35;;;;;;;0.93;0.93;;;;;;;;;;6299304;28;20032;-80
2021/12/01 03:22:36;;;;;;;3.30;1.10;;;;;;;;;;6316110;28;20424;-79
2021/12/01 03:25:37;;;;;;;1.25;1.15;;;6.20;99.90;;;;;;6315794;28;20409;-81
2021/12/01 03:28:38;;;;;;;1.30;1.20;;;6.10;99.90;;;;;;6316179;28;20028;-79
2021/12/01 03:31:38;;;;;;;0.80;0.80;;;6.30;99.90;;;;;;6299265;28;20024;-80
2021/12/01 03:34:39;;;;;;;1.63;1.05;;;;;;;;;;6317662;28;20032;-82
2021/12/01 03:37:41;;;;;;;2.88;1.02;;;6.30;99.90;;;;;;6299204;28;20028;-84
2021/12/01 03:40:41;;;;;;;0.80;0.80;;;6.40;99.90;;;;;;6282828;28;20053;-83
2021/12/01 03:43:42;;;;;;;1.83;1.13;;;;;;;;;;6299231;28;20236;-82
2021/12/01 03:46:43;;;;;;;1.50;1.40;;;6.30;99.90;;;;;;6316540;28;20020;-83
2021/12/01 03:49:44;;;;;;;2.17;0.93;;;6.20;99.90;;;;;;6298900;28;20030;-82
2021/12/01 03:52:44;;;;;;;2.97;1.13;;;6.40;99.90;;;;;;6316137;28;20034;-82
2021/12/01 03:55:45;;;;;;;1.45;1.02;;;6.40;99.90;;;;;;6315971;28;20106;-82
2021/12/01 03:58:47;;;;;;;1.05;0.90;;;6.30;99.90;;;;;;6315376;28;20108;-82
2021/12/01 04:01:48;;;;;;;1.38;1.27;;;;;;;;;;6299006;28;20073;-80
2021/12/01 04:04:48;;;;;;;2.20;2.00;;;6.20;99.90;;;;;;6320266;28;20040;-80
2021/12/01 04:07:49;;;;;;;1.10;0.90;;;6.20;99.90;;;;;;6286691;28;20165;-79
2021/12/01 04:10:50;;;;;;;0.80;0.80;;;6.20;99.90;;;;;;6320025;28;20027;-80
2021/12/01 04:13:51;;;;;;;1.52;1.13;;;6.30;99.90;;;;;;6286326;28;20028;-82
2021/12/01 04:16:51;;;;;;;1.00;1.00;;;8.00;99.90;;;;;;6320214;28;20378;-80
2021/12/01 04:19:52;;;;;;;2.70;1.20;;;6.30;99.90;;;;;;6321014;28;20041;-79
2021/12/01 04:22:53;;;;;;;2.95;1.48;;;;;;;;;;6303254;28;20020;-81
2021/12/01 04:25:54;;;;;;;1.20;1.10;;;6.40;99.90;;;;;;6319579;28;20056;-80
2021/12/01 04:28:56;;;;;;;1.45;1.25;;;;;;;;;;6302752;28;20531;-82
2021/12/01 04:31:57;;;;;;;2.00;1.60;;;;;;;;;;6302730;28;20021;-84
2021/12/01 04:34:58;;;;;;;0.80;0.80;;;;;;;;;;6321099;28;20051;-82
2021/12/01 04:37:59;;;;;;;1.05;1.05;;;;;;;;;;6302862;28;20031;-85
2021/12/01 04:41:01;;;;;;;0.93;0.93;;;6.80;99.90;;;;;;6319865;28;20035;-85
2021/12/01 04:44:08;;;;;;;0.75;0.75;;;6.70;99.90;;;;;;6286401;28;20477;-82
2021/12/01 04:47:13;;;;;;;1.17;1.05;;;6.60;99.90;;;;;;6303311;28;20048;-82
2021/12/01 04:50:14;;;;;;;0.80;0.80;;;7.00;99.90;;;;;;6320738;28;20360;-83
2021/12/01 04:53:14;;;;;;;1.08;1.00;;;6.70;99.90;;;;;;6302512;28;20078;-82
2021/12/01 04:56:16;;;;;;;1.30;1.20;;;6.80;99.90;;;;;;6319213;28;20066;-82
2021/12/01 04:59:17;;;;;;;0.70;0.70;;;;;;;;;;6301909;28;20549;-83
2021/12/01 05:02:18;;;;;;;0.75;0.75;;;6.80;99.90;;;;;;6302240;28;20354;-80
2021/12/01 05:05:19;;;;;;;1.67;1.00;;;;;;;;;;6318789;28;20032;-80
2021/12/01 05:08:20;;;;;;;0.73;0.70;;;;;;;;;;6318978;28;20020;-81
2021/12/01 05:11:25;;;;;;;1.23;1.00;;;;;;;;;;6318729;28;20378;-81
2021/12/01 05:14:27;;;;;;;0.77;0.77;;;;;;;;;;6319747;28;20016;-81
2021/12/01 05:17:28;;;;;;;0.80;0.80;;;;;;;;;;6319496;28;20024;-82
2021/12/01 05:20:29;;;;;;;2.33;1.02;;;6.90;99.90;;;;;;6318288;28;20093;-81
2021/12/01 05:23:30;;;;;;;1.85;0.85;;;;;;;;;;6319532;28;20020;-84
2021/12/01 05:26:31;;;;;;;0.93;0.82;;;;;;;;;;6319682;28;20087;-80
2021/12/01 05:29:32;;;;;;;1.20;1.00;;;;;;;;;;6318680;28;20030;-81
2021/12/01 05:32:33;;;;;;;0.93;0.93;;;;;;;;;;6318238;28;20042;-81
2021/12/01 05:35:34;;;;;;;2.88;0.70;;;7.10;99.90;;;;;;6315346;28;20037;-82
2021/12/01 05:38:35;;;;;;;1.05;1.00;;;7.10;99.90;;;;;;6292747;28;20063;-81
2021/12/01 05:41:36;;;;;;;1.00;1.00;;;;;;;;;;6315859;28;20128;-84
2021/12/01 05:44:36;;;;;;;0.95;0.80;;;6.90;99.90;;;;;;6317360;28;20031;-82
2021/12/01 05:47:37;;;;;;;0.88;0.85;;;7.40;99.90;;;;;;6301119;28;20055;-83
2021/12/01 05:50:38;;;;;;;1.08;0.93;;;;;;;;;;6317535;28;20024;-82
2021/12/01 05:53:39;;;;;;;0.57;0.57;;;;;;;;;;6313662;28;20039;-81
2021/12/01 05:56:40;;;;;;;3.10;1.02;;;;;;;;;;6317324;28;20074;-83
2021/12/01 05:59:41;;;;;;;1.40;1.30;;;;;;;;;;6300276;28;20036;-80
2021/12/01 06:02:43;;;;;;;1.65;0.80;;;;;;;;;;6317632;28;20485;-81
2021/12/01 06:05:44;;;;;;;1.13;0.50;;;6.90;99.90;;;;;;6314458;28;20036;-81
2021/12/01 06:08:44;;;;;;;0.85;0.75;;;7.00;99.90;;;;;;6315864;28;20039;-87
2021/12/01 06:11:47;;;;;;;0.85;0.85;;;;;;;;;;6300988;28;20074;-79
2021/12/01 06:14:50;;;;;;;1.15;1.05;;;;;;;;;;6316803;28;20035;-83
2021/12/01 06:17:51;;;;;;;2.00;1.30;;;;;;;;;;6316664;28;20416;-82
2021/12/01 06:20:52;;;;;;;0.65;0.65;;;7.00;99.90;;;;;;6300293;28;20060;-80
2021/12/01 06:23:53;;;;;;;1.85;0.68;;;7.50;99.90;;;;;;6300292;28;20394;-84
2021/12/01 06:26:54;;;;;;;0.55;0.55;;;;;;;;;;6282600;28;20056;-83
2021/12/01 06:29:54;;;;;;;0.57;0.57;;;;;;;;;;6316858;28;20034;-81
2021/12/01 06:32:55;;;;;;;0.60;0.60;;;7.40;99.90;;;;;;6299577;28;20024;-81
2021/12/01 06:35:56;;;;;;;0.70;0.70;;;;;;;;;;6299843;28;20028;-80
2021/12/01 06:38:57;;;;;;;0.52;0.52;;;7.10;99.90;;;;;;6317527;28;20402;-82
2021/12/01 06:41:58;;;;;;;0.60;0.60;;;;;;;;;;6316394;28;20035;-81
2021/12/01 06:44:59;;;;;;;1.25;0.95;;;;;;;;;;6299937;28;20105;-81
2021/12/01 06:48:00;;;;;;;1.95;1.65;;;;;;;;;;6317777;28;20115;-80
2021/12/01 06:51:00;;;;;;;3.92;2.30;;;7.50;99.90;;;;;;6299661;28;20466;-81
2021/12/01 06:54:01;;;;;;;7.93;5.28;;;;;;;;;;6299809;28;20028;-80
2021/12/01 06:57:02;;;;;;;34.90;17.77;;;;;;;;;;6299880;28;20028;-83
2021/12/01 07:00:05;;;;;;;13.00;9.25;;;7.20;99.90;;;;;;6316133;28;20032;-80
2021/12/01 07:03:06;;;;;;;1.25;1.15;;;7.00;99.90;;;;;;6299729;28;20028;-82
2021/12/01 07:06:07;;;;;;;5.75;2.90;;;;;;;;;;6297491;28;20463;-80
2021/12/01 07:09:17;;;;;;;6.68;4.00;;;7.80;99.90;;;;;;6317737;28;20028;-82
2021/12/01 07:12:18;;;;;;;3.50;3.17;;;7.90;99.90;;;;;;6300226;28;20035;-80
2021/12/01 07:15:18;;;;;;;5.20;4.70;;;7.60;99.90;;;;;;6314735;28;20444;-81
2021/12/01 07:18:19;;;;;;;1.73;1.63;;;;;;;;;;6298980;28;20458;-81
2021/12/01 07:21:20;;;;;;;2.40;2.20;;;;;;;;;;6299568;28;20021;-80
2021/12/01 07:24:21;;;;;;;0.65;0.65;;;7.90;99.90;;;;;;6314500;28;20051;-83
2021/12/01 07:27:23;;;;;;;1.73;1.63;;;;;;;;;;6296162;28;20050;-79
2021/12/01 07:30:24;;;;;;;0.55;0.55;;;;;;;;;;6296731;28;20086;-81
2021/12/01 07:33:24;;;;;;;0.80;0.80;;;8.00;99.90;;;;;;6314648;28;20064;-81
2021/12/01 07:36:25;;;;;;;0.68;0.68;;;;;;;;;;6313201;28;20409;-81
2021/12/01 07:39:26;;;;;;;1.40;1.30;;;;;;;;;;6320962;28;20474;-80
2021/12/01 07:42:27;;;;;;;1.40;1.30;;;8.40;99.90;;;;;;6322422;28;20031;-81
2021/12/01 07:45:29;;;;;;;0.45;0.45;;;;;;;;;;6287398;28;20024;-80
2021/12/01 07:48:31;;;;;;;1.05;0.90;;;8.50;99.90;;;;;;6321014;28;20012;-80
2021/12/01 07:51:32;;;;;;;1.58;0.90;;;8.80;99.90;;;;;;6312457;28;20029;-80
2021/12/01 07:54:33;;;;;;;0.95;0.85;;;8.50;99.90;;;;;;6321392;28;20066;-80
2021/12/01 07:57:34;;;;;;;0.55;0.55;;;8.70;99.90;;;;;;6320944;28;20036;-81
2021/12/01 08:00:34;;;;;;;0.50;0.50;;;9.50;99.90;;;;;;6319925;28;20027;-80
2021/12/01 08:03:35;;;;;;;0.40;0.40;;;8.80;99.90;;;;;;6303261;28;20031;-80
2021/12/01 08:06:35;;;;;;;0.63;0.63;;;8.60;99.90;;;;;;6319786;28;20458;-82
2021/12/01 08:09:36;;;;;;;0.68;0.68;;;8.20;99.90;;;;;;6318964;28;20066;-80
2021/12/01 08:12:38;;;;;;;0.50;0.50;;;8.70;99.90;;;;;;6302792;28;20031;-80
2021/12/01 08:15:39;;;;;;;0.43;0.40;;;;;;;;;;6319535;28;20036;-80
2021/12/01 08:18:40;;;;;;;0.45;0.45;;;9.00;99.90;;;;;;6300848;28;20541;-80
2021/12/01 08:21:40;;;;;;;0.30;0.30;;;9.60;99.90;;;;;;6285868;28;20069;-80
2021/12/01 08:24:41;;;;;;;1.42;1.33;;;9.30;99.90;;;;;;6302465;28;20059;-80
2021/12/01 08:27:42;;;;;;;1.63;1.33;;;9.50;99.90;;;;;;6319328;28;20055;-79
2021/12/01 08:30:42;;;;;;;0.50;0.50;;;9.40;99.90;;;;;;6302698;28;20028;-81
2021/12/01 08:33:44;;;;;;;0.52;0.52;;;;;;;;;;6320184;28;20103;-79
2021/12/01 08:36:46;;;;;;;0.60;0.57;;;10.00;99.90;;;;;;6317825;28;20093;-81
2021/12/01 08:39:50;;;;;;;0.50;0.50;;;9.70;99.90;;;;;;6318742;28;20024;-81
2021/12/01 08:42:51;;;;;;;0.50;0.50;;;;;;;;;;6319414;28;20024;-78
2021/12/01 08:45:52;;;;;;;0.82;0.82;;;;;;;;;;6319375;28;20024;-78
2021/12/01 08:48:53;;;;;;;0.77;0.77;;;;;;;;;;6319391;28;20043;-77
2021/12/01 08:51:53;;;;;;;0.88;0.88;;;10.30;99.90;;;;;;6320598;28;20035;-82
2021/12/01 08:54:54;;;;;;;1.02;1.02;;;10.50;99.90;;;;;;6285152;28;20107;-79
2021/12/01 08:57:55;;;;;;;2.83;0.70;;;10.00;99.90;;;;;;6318548;28;20493;-79
2021/12/01 09:00:55;;;;;;;0.65;0.65;;;10.40;99.90;;;;;;6319696;28;20085;-80
2021/12/01 09:03:56;;;;;;;0.65;0.65;;;;;;;;;;6318652;28;20074;-79
2021/12/01 09:06:58;;;;;;;0.93;0.85;;;;;;;;;;6320002;28;20077;-79
2021/12/01 09:09:58;;;;;;;2.15;1.10;;;10.60;99.90;;;;;;6318856;28;20031;-80
2021/12/01 09:12:59;;;;;;;0.47;0.47;;;;;;;;;;6319705;28;20375;-79
2021/12/01 09:16:00;;;;;;;1.40;0.57;;;10.60;99.90;;;;;;6319872;28;20111;-79
2021/12/01 09:19:01;;;;;;;0.60;0.60;;;11.00;99.90;;;;;;6316432;28;20067;-81
2021/12/01 09:22:01;;;;;;;0.82;0.82;;;10.80;99.90;;;;;;6301057;28;20388;-79
2021/12/01 09:25:03;;;;;;;0.88;0.88;;;11.50;99.90;;;;;;6319349;28;20536;-78
2021/12/01 09:28:04;;;;;;;1.13;1.13;;;11.10;99.90;;;;;;6317415;28;20028;-79
2021/12/01 09:31:05;;;;;;;2.45;2.00;;;11.10;99.90;;;;;;6319224;28;20043;-78
2021/12/01 09:34:05;;;;;;;5.72;3.40;;;11.80;99.90;;;;;;6317576;28;20385;-78
2021/12/01 09:37:07;;;;;;;4.82;4.32;;;;;;;;;;6319370;28;20035;-79
2021/12/01 09:40:13;;;;;;;2.22;1.92;;;12.80;99.90;;;;;;6315549;28;20066;-79
2021/12/01 09:43:14;;;;;;;2.53;2.33;;;13.70;99.90;;;;;;6317696;28;20024;-79
2021/12/01 09:46:15;;;;;;;1.10;1.10;;;14.00;99.90;;;;;;6317820;28;20028;-79
2021/12/01 09:49:16;;;;;;;0.55;0.55;;;13.90;99.90;;;;;;6300760;28;20036;-79
2021/12/01 09:52:18;;;;;;;2.45;1.00;;;14.70;99.90;;;;;;6318748;28;20390;-79
2021/12/01 09:55:19;;;;;;;0.80;0.80;;;14.80;99.90;;;;;;6317516;28;20105;-78
2021/12/01 09:58:22;;;;;;;0.65;0.65;;;15.50;99.90;;;;;;6315414;28;20048;-79
2021/12/01 10:01:23;;;;;;;1.25;1.17;;;14.70;99.90;;;;;;6299477;28;20059;-79
2021/12/01 10:04:25;;;;;;;0.77;0.77;;;14.30;99.90;;;;;;6300550;28;20036;-78
2021/12/01 10:07:32;;;;;;;1.60;1.00;;;13.60;99.90;;;;;;6318283;28;20032;-78
2021/12/01 10:10:37;;;;;;;1.20;1.20;;;13.40;99.90;;;;;;6317289;28;20053;-78
2021/12/01 10:13:39;;;;;;;0.80;0.80;;;13.20;99.90;;;;;;6316614;28;20164;-78
2021/12/01 10:16:41;;;;;;;0.70;0.70;;;13.10;99.90;;;;;;6316814;28;20027;-79
2021/12/01 10:19:42;;;;;;;0.70;0.70;;;12.60;99.90;;;;;;6298446;28;20043;-78
2021/12/01 10:23:11;;;;;;;0.52;0.52;;;12.20;99.90;;;;;;6313921;28;20043;-78
2021/12/01 10:26:26;;;;;;;2.05;0.82;;;12.50;99.90;;;;;;6316191;28;20044;-78
2021/12/01 10:29:34;;;;;;;1.15;1.08;;;12.40;99.90;;;;;;6316570;28;20042;-80
2021/12/01 10:32:36;;;;;;;0.70;0.70;;;12.00;99.90;;;;;;6316612;28;20048;-80
2021/12/01 10:35:37;;;;;;;1.05;1.00;;;11.80;99.90;;;;;;6316865;28;20047;-79
2021/12/01 10:38:39;;;;;;;0.82;0.82;;;12.20;99.90;;;;;;6317722;28;20043;-79
2021/12/01 10:41:42;;;;;;;0.95;0.88;;;11.80;99.90;;;;;;6281025;28;20032;-79
2021/12/01 10:44:56;;;;;;;1.55;0.80;;;12.10;99.90;;;;;;6315221;28;20394;-79
2021/12/01 10:47:57;;;;;;;2.08;0.43;;;12.00;99.90;;;;;;6316233;28;20035;-78
2021/12/01 10:50:58;;;;;;;0.52;0.52;;;12.30;99.90;;;;;;6318124;28;20485;-79
2021/12/01 10:53:59;;;;;;;0.65;0.65;;;11.90;99.90;;;;;;6317722;28;20060;-81
2021/12/01 10:57:22;;;;;;;0.70;0.70;;;12.30;99.90;;;;;;6299642;28;20067;-82
2021/12/01 11:00:26;;;;;;;0.50;0.50;;;11.40;99.90;;;;;;6314528;28;20032;-81
2021/12/01 11:03:29;;;;;;;0.50;0.50;;;11.30;99.90;;;;;;6314927;28;20060;-81
2021/12/01 11:06:34;;;;;;;0.98;0.98;;;11.60;99.90;;;;;;6299635;28;20028;-81
2021/12/01 11:09:35;;;;;;;1.55;1.40;;;11.60;99.90;;;;;;6316494;28;20024;-81
2021/12/01 11:12:35;;;;;;;1.42;1.33;;;11.10;99.90;;;;;;6319375;28;20035;-81
2021/12/01 11:15:40;;;;;;;0.60;0.60;;;11.30;99.90;;;;;;6322374;28;20024;-81
2021/12/01 11:18:43;;;;;;;1.08;0.95;;;11.20;99.90;;;;;;6320861;28;20051;-81
2021/12/01 11:21:44;;;;;;;1.85;0.82;;;11.20;99.90;;;;;;6303822;28;20052;-81
2021/12/01 11:24:45;;;;;;;0.60;0.60;;;;;;;;;;6285286;28;20466;-81
2021/12/01 11:27:46;;;;;;;0.90;0.88;;;10.90;99.90;;;;;;6321812;28;20370;-81
2021/12/01 11:30:49;;;;;;;0.70;0.70;;;10.60;99.90;;;;;;6320802;28;20055;-81
2021/12/01 11:33:54;;;;;;;3.38;2.85;;;10.70;99.90;;;;;;6320820;28;20028;-81
2021/12/01 11:36:55;;;;;;;1.20;1.10;;;;;;;;;;6320810;28;20063;-81
2021/12/01 11:39:57;;;;;;;1.10;1.00;;;10.60;99.90;;;;;;6320826;28;20385;-81
2021/12/01 11:42:58;;;;;;;0.95;0.95;;;10.50;99.90;;;;;;6319360;28;20035;-81
2021/12/01 11:45:58;;;;;;;3.08;1.17;;;10.90;99.90;;;;;;6320395;28;20035;-81
2021/12/01 11:49:01;;;;;;;1.08;1.08;;;10.50;99.90;;;;;;6321007;28;20110;-81
2021/12/01 11:52:04;;;;;;;1.02;0.90;;;10.20;99.90;;;;;;6303296;28;20495;-81
2021/12/01 11:55:04;;;;;;;0.70;0.70;;;10.20;99.90;;;;;;6317878;28;20042;-81
2021/12/01 11:58:05;;;;;;;1.77;1.67;;;10.40;99.90;;;;;;6319579;28;20052;-81
2021/12/01 12:01:06;;;;;;;1.08;0.77;;;10.40;99.90;;;;;;6318248;28;20020;-81
2021/12/01 12:04:06;;;;;;;1.33;0.77;;;10.50;99.90;;;;;;6302950;28;20035;-81
2021/12/01 12:07:11;;;;;;;0.47;0.47;;;10.40;99.90;;;;;;6321443;28;20028;-81
2021/12/01 12:10:16;;;;;;;1.10;0.98;;;10.40;99.90;;;;;;6319715;28;20028;-81
2021/12/01 12:13:17;;;;;;;0.43;0.43;;;10.50;99.90;;;;;;6287228;28;20032;-82
2021/12/01 12:16:23;;;;;;;0.82;0.80;;;10.20;99.90;;;;;;6302640;28;20078;-81
2021/12/01 12:19:44;;;;;;;1.58;0.82;;;10.10;99.90;;;;;;6319768;28;20038;-81
2021/12/01 12:22:46;;;;;;;0.88;0.77;;;;;;;;;;6318089;28;20423;-81
2021/12/01 12:25:50;;;;;;;0.70;0.70;;;;;;;;;;6320934;28;20036;-81
2021/12/01 12:28:51;;;;;;;1.70;0.90;;;;;;;;;;6320699;28;20043;-80
2021/12/01 12:31:54;;;;;;;1.15;0.52;;;9.40;99.90;;;;;;6319164;28;20028;-80
2021/12/01 12:35:01;;;;;;;0.85;0.85;;;10.20;99.90;;;;;;6302509;28;20417;-80
2021/12/01 12:38:08;;;;;;;0.60;0.60;;;9.70;99.90;;;;;;6302605;28;20048;-80
2021/12/01 12:41:13;;;;;;;0.70;0.70;;;9.70;99.90;;;;;;6301147;28;20086;-80
2021/12/01 12:44:33;;;;;;;0.63;0.63;;;9.60;99.90;;;;;;6319085;28;20448;-80
2021/12/01 12:47:39;;;;;;;0.90;0.90;;;9.60;99.90;;;;;;6316879;28;20443;-82
2021/12/01 12:50:40;;;;;;;1.02;0.90;;;9.40;99.90;;;;;;6318223;28;20061;-81
2021/12/01 12:53:59;;;;;;;0.45;0.45;;;10.30;99.90;;;;;;6302607;28;20372;-81
2021/12/01 12:57:00;;;;;;;0.77;0.77;;;9.50;99.90;;;;;;6319968;28;20028;-81
2021/12/01 13:00:21;;;;;;;0.75;0.75;;;9.30;99.90;;;;;;6301751;28;20774;-81
2021/12/01 13:03:24;;;;;;;0.70;0.70;;;9.30;99.90;;;;;;6301230;28;20089;-81
2021/12/01 13:06:28;;;;;;;1.20;0.85;;;9.70;99.90;;;;;;6319788;28;20386;-81
2021/12/01 13:09:29;;;;;;;0.93;0.75;;;9.90;99.90;;;;;;6318556;28;20110;-78
2021/12/01 13:12:30;;;;;;;0.80;0.80;;;9.50;99.90;;;;;;6296238;28;20427;-80
2021/12/01 13:15:35;;;;;;;0.60;0.60;;;9.20;99.90;;;;;;6299629;28;20458;-80
2021/12/01 13:18:37;;;;;;;0.50;0.50;;;9.20;99.90;;;;;;6317111;28;20133;-80
2021/12/01 13:21:38;;;;;;;0.57;0.57;;;9.90;99.90;;;;;;6298649;28;20466;-80
2021/12/01 13:24:39;;;;;;;4.25;0.73;;;10.20;99.90;;;;;;6298658;28;20075;-80
2021/12/01 13:27:43;;;;;;;1.95;1.30;;;9.10;99.90;;;;;;6299302;28;20025;-81
2021/12/01 13:30:56;;;;;;;0.77;0.70;;;9.30;99.90;;;;;;6299453;28;20698;-81
2021/12/01 13:34:05;;;;;;;1.00;1.00;;;10.30;99.90;;;;;;6284220;28;20028;-81
2021/12/01 13:37:07;;;;;;;2.17;1.02;;;9.40;99.90;;;;;;6317331;28;20644;-81
2021/12/01 13:40:09;;;;;;;1.10;1.10;;;9.70;99.90;;;;;;6301342;28;20351;-80
2021/12/01 13:43:19;;;;;;;0.80;0.80;;;9.40;99.90;;;;;;6317333;28;20094;-80
2021/12/01 13:46:19;;;;;;;1.15;1.15;;;9.50;99.90;;;;;;6317183;28;20035;-81
2021/12/01 13:49:20;;;;;;;8.73;5.90;;;9.80;99.90;;;;;;6318971;28;20059;-81
2021/12/01 13:52:41;;;;;;;4.85;3.28;;;9.50;99.90;;;;;;6317395;28;20032;-81
2021/12/01 13:55:41;;;;;;;4.22;2.45;;;9.60;99.90;;;;;;6286989;28;20148;-81
2021/12/01 13:58:42;;;;;;;2.70;2.25;;;9.50;99.90;;;;;;6317229;28;20036;-80
2021/12/01 14:01:46;;;;;;;1.88;1.73;;;9.70;99.90;;;;;;6300374;28;20386;-81
2021/12/01 14:04:49;;;;;;;40.20;20.80;;;9.20;99.90;;;;;;6315269;28;20032;-82
2021/12/01 14:07:50;;;;;;;9.43;5.93;;;9.20;99.90;;;;;;6300456;28;20098;-82
2021/12/01 14:10:56;;;;;;;7.05;4.75;;;9.40;99.90;;;;;;6300059;28;20032;-81
2021/12/01 14:14:00;;;;;;;3.38;2.58;;;9.30;99.90;;;;;;6316840;28;20387;-80
2021/12/01 14:17:02;;;;;;;1.98;1.83;;;9.20;99.90;;;;;;6283268;28;20785;-80
2021/12/01 14:20:03;;;;;;;1.30;1.20;;;9.20;99.90;;;;;;6316931;28;20682;-82
2021/12/01 14:23:04;;;;;;;4.75;3.47;;;9.20;99.90;;;;;;6282988;28;20032;-80
2021/12/01 14:26:05;;;;;;;2.20;2.00;;;9.20;99.90;;;;;;6315972;28;20059;-80
2021/12/01 14:29:07;;;;;;;11.68;8.05;;;9.30;99.90;;;;;;6315016;28;20024;-79
2021/12/01 14:32:10;;;;;;;2.55;2.03;;;9.40;99.90;;;;;;6315827;28;20369;-79
2021/12/01 14:35:10;;;;;;;;;;;9.30;99.90;;;;;;6299469;28;20149;-79
2021/12/01 14:38:11;;;;;;;1.83;1.45;;;9.60;99.90;;;;;;6315288;28;20276;-79
2021/12/01 14:41:12;;;;;;;2.47;2.25;;;9.20;99.90;;;;;;6298849;28;20032;-79
2021/12/01 14:44:12;;;;;;;2.03;1.83;;;9.30;99.90;;;;;;6300169;28;20465;-79
2021/12/01 14:47:15;;;;;;;2.28;2.10;;;9.20;99.90;;;;;;6299129;28;20040;-79
2021/12/01 14:50:23;;;;;;;;;;;9.20;99.90;;;;;;6300831;28;20121;-80
2021/12/01 14:53:25;;;;;;;3.78;2.70;;;9.30;99.90;;;;;;6315497;28;19904;-79
2021/12/01 14:56:25;;;;;;;3.28;2.50;;;9.10;99.90;;;;;;6298702;28;20028;-79
2021/12/01 14:59:26;;;;;;;2.50;2.30;;;9.10;99.90;;;;;;6315725;28;20051;-78
2021/12/01 15:02:37;;;;;;;2.38;1.88;;;9.10;99.90;;;;;;6316457;28;20048;-78
2021/12/01 15:05:54;;;;;;;2.35;2.13;;;9.40;99.90;;;;;;6315555;28;20528;-78
2021/12/01 15:08:55;;;;;;;3.50;3.20;;;9.20;99.90;;;;;;6295958;28;20050;-80
2021/12/01 15:11:55;;;;;;;4.28;3.70;;;9.10;99.90;;;;;;6313194;28;20024;-80
2021/12/01 15:14:56;;;;;;;1.92;1.83;;;12.00;99.90;;;;;;6315553;28;20377;-80
2021/12/01 15:18:07;;;;;;;3.22;2.90;;;9.00;99.90;;;;;;6296038;28;20036;-78
2021/12/01 15:21:20;;;;;;;3.00;2.47;;;8.90;99.90;;;;;;6315614;28;20032;-82
2021/12/01 15:24:23;;;;;;;3.20;2.13;;;8.90;99.90;;;;;;6297886;28;20032;-82
2021/12/01 15:27:23;;;;;;;4.40;2.97;;;8.70;99.90;;;;;;6312335;28;20044;-82
2021/12/01 15:30:24;;;;;;;3.88;3.05;;;8.80;99.90;;;;;;6312016;28;20039;-82
2021/12/01 15:33:25;;;;;;;3.97;3.28;;;8.70;99.90;;;;;;6312101;28;20036;-81
2021/12/01 15:36:25;;;;;;;2.38;2.13;;;8.70;99.90;;;;;;6294890;28;20119;-81
2021/12/01 15:39:29;;;;;;;2.95;2.20;;;8.90;99.90;;;;;;6298141;28;20078;-81
2021/12/01 15:42:30;;;;;;;4.38;2.67;;;8.70;99.90;;;;;;6299337;28;20032;-78
2021/12/01 15:45:31;;;;;;;2.65;2.20;;;9.00;99.90;;;;;;6312864;28;20028;-85
2021/12/01 15:48:32;;;;;;;3.63;2.78;;;8.90;99.90;;;;;;6276346;28;20055;-82
2021/12/01 15:51:33;;;;;;;4.53;2.83;;;8.70;99.90;;;;;;6313858;28;20033;-83
2021/12/01 15:54:33;;;;;;;4.15;3.00;;;9.10;99.90;;;;;;6285073;28;20020;-83
2021/12/01 15:57:34;;;;;;;1.95;1.63;;;9.90;99.90;;;;;;6313900;28;20075;-83
2021/12/01 16:00:35;;;;;;;2.30;2.08;;;8.60;99.90;;;;;;6300264;28;20107;-82
2021/12/01 16:03:35;;;;;;;1.48;1.20;;;8.80;99.90;;;;;;6285432;28;20173;-83
2021/12/01 16:06:36;;;;;;;2.85;1.73;;;8.50;99.90;;;;;;6317765;28;20028;-80
2021/12/01 16:09:37;;;;;;;4.65;2.55;;;8.50;99.90;;;;;;6319663;28;20019;-79
2021/12/01 16:12:37;;;;;;;7.28;3.60;;;8.40;99.90;;;;;;6319677;28;20078;-83
2021/12/01 16:15:38;;;;;;;2.75;1.88;;;8.40;99.90;;;;;;6287176;28;20108;-79
2021/12/01 16:18:39;;;;;;;1.48;1.33;;;8.50;99.90;;;;;;6302882;28;20064;-78
2021/12/01 16:21:40;;;;;;;2.42;1.85;;;8.70;99.90;;;;;;6320397;28;20038;-83
2021/12/01 16:24:40;;;;;;;3.53;2.30;;;8.60;99.90;;;;;;6285817;28;20028;-78
2021/12/01 16:27:41;;;;;;;2.72;1.88;;;8.50;99.90;;;;;;6321210;28;20082;-78
2021/12/01 16:30:42;;;;;;;2.70;2.10;;;;;;;;;;6320803;28;20032;-79
2021/12/01 16:33:43;;;;;;;4.18;2.60;;;8.50;99.90;;;;;;6321279;28;20094;-80
2021/12/01 16:36:44;;;;;;;6.88;4.03;;;8.60;99.90;;;;;;6302943;28;20039;-80
2021/12/01 16:39:45;;;;;;;3.90;3.15;;;8.80;99.90;;;;;;6320936;28;20040;-80